Latest Coastal Weather Observations for Neptune Island

IDS60701

Issued at 1:35 am CDT Friday 31 October 2014 (issued every 10 minutes, with the page automatically refreshed every 10 minutes)

About coastal observations | Map of coastal stations | Coastal observations for SA | Marine services | Other Formats
Station Details ID: 018115 Name: NEPTUNE ISLAND Lat: -35.34 Lon: 136.12 Height: 32.0 m
Data from the previous 72 hours. | See also: Recent months at Neptune Island
Date/Time
CDT
Temp

°C
Wind Pressure Rain
since 9am
mm
Weather Cloud Vis
km
Sea
Height
m
Swell
Dir
 
Speed
knots
Gust
knots
hPa Trend Height
m
Period
s
Dir
31/01:30am 16.8 NE 13 14 1007.2 - 0.0 - - - - - - -
31/01:00am 16.9 ENE 11 13 1008.0 - 0.0 - - - - - - -
31/12:30am 16.9 ENE 13 14 1008.5 - 0.0 - - - - - - -
31/12:00am 16.9 ENE 11 13 1009.2 - 0.0 - - - - - - -
 
Date/Time
CDT
Temp

°C
Wind Pressure Rain
since 9am
mm
Weather Cloud Vis
km
Sea
Height
m
Swell
Dir
 
Speed
knots
Gust
knots
hPa Trend Height
m
Period
s
Dir
30/11:30pm 16.9 ENE 12 14 1009.3 - 0.0 - - - - - - -
30/11:00pm 16.8 ENE 12 14 1009.7 - 0.0 - - - - - - -
30/10:30pm 16.8 ENE 13 15 1010.1 - 0.0 - - - - - - -
30/10:00pm 16.9 E 12 14 1010.6 - 0.0 - - - - - - -
30/09:30pm 16.8 E 12 14 1011.0 - 0.0 - - - - - - -
30/09:00pm 16.8 E 12 14 1010.9 - 0.0 - - - - - - -
30/08:30pm 16.9 E 11 13 1011.1 - 0.0 - - - - - - -
30/08:00pm 16.7 E 13 15 1010.4 - 0.0 - - - - - - -
30/07:30pm 16.8 ENE 13 15 1010.3 - 0.0 - - - - - - -
30/07:00pm 17.0 ENE 10 12 1010.6 - 0.0 - - - - - - -
30/06:30pm 16.8 ENE 11 13 1010.5 - 0.0 - - - - - - -
30/06:00pm 17.2 ENE 10 11 1010.9 - 0.0 - - - - - - -
30/05:30pm 17.8 NE 8 11 1011.3 - 0.0 - - - - - - -
30/05:00pm 17.5 NNE 10 15 1011.3 - 0.0 - - - - - - -
30/04:30pm 18.0 NNE 9 12 1011.8 - 0.0 - - - - - - -
30/04:00pm 17.7 NNE 9 12 1012.3 - 0.0 - - - - - - -
30/03:30pm 18.5 NE 12 15 1012.4 - 0.0 - - - - - - -
30/03:00pm 17.6 NE 9 12 1013.1 - 0.0 - - - - - - -
30/02:30pm 18.4 NE 7 10 1013.9 - 0.0 - - - - - - -
30/02:00pm 17.3 NE 8 10 1014.1 - 0.0 - - - - - - -
30/01:30pm 17.8 NNE 7 10 1014.6 - 0.0 - - - - - - -
30/01:00pm 18.6 NNE 8 10 1014.8 - 0.0 - - - - - - -
30/12:30pm 17.6 NNE 8 11 1015.4 - 0.0 - - - - - - -
30/12:00pm 18.2 NE 9 12 1014.9 - 0.0 - - - - - - -
30/11:30am 17.0 NE 7 10 1015.5 - 0.0 - - - - - - -
30/11:00am 17.7 NE 7 10 1015.5 - 0.0 - - - - - - -
30/10:30am 17.0 NE 7 9 1015.7 - 0.0 - - - - - - -
30/10:00am 16.5 NNE 7 9 1015.9 - 0.0 - - - - - - -
30/09:30am 16.0 NE 5 7 1016.0 - 0.0 - - - - - - -
30/09:00am 15.8 NE 5 6 1016.0 - 0.0 - - - - - - -
30/08:30am 15.5 NNE 4 6 1016.0 - 0.0 - - - - - - -
30/08:00am 14.8 NNE 4 5 1016.0 - 0.0 - - - - - - -
30/07:30am 14.3 CALM 0 0 1015.8 - 0.0 - - - - - - -
30/07:00am 13.7 NE 3 5 1015.6 - 0.0 - - - - - - -
30/06:30am 13.2 CALM 0 0 1015.5 - 0.0 - - - - - - -
30/06:00am 12.9 E 4 5 1015.3 - 0.0 - - - - - - -
30/05:30am 13.2 CALM 0 0 1015.4 - 0.0 - - - - - - -
30/05:00am 13.3 SSW 1 6 1015.5 - 0.0 - - - - - - -
30/04:30am 13.0 NE 5 7 1014.4 - 0.0 - - - - - - -
30/04:00am 13.4 CALM 0 0 1015.2 - 0.0 - - - - - - -
30/03:30am 14.2 SSW 5 8 1015.6 - 0.0 - - - - - - -
30/03:00am 14.4 S 8 10 1015.8 - 0.0 - - - - - - -
30/02:30am 14.2 SSW 9 12 1016.1 - 0.0 - - - - - - -
30/02:00am 14.0 SSW 7 10 1016.2 - 0.0 - - - - - - -
30/01:30am 13.9 S 6 8 1016.2 - 0.0 - - - - - - -
30/01:00am 13.8 CALM 0 3 1016.6 - 0.0 - - - - - - -
30/12:30am 14.1 SSE 5 7 1016.9 - 0.0 - - - - - - -
30/12:00am 14.0 SSE 5 6 1017.1 - 0.0 - - - - - - -
 
Date/Time
CDT
Temp

°C
Wind Pressure Rain
since 9am
mm
Weather Cloud Vis
km
Sea
Height
m
Swell
Dir
 
Speed
knots
Gust
knots
hPa Trend Height
m
Period
s
Dir
29/11:30pm 14.4 S 7 10 1017.3 - 0.0 - - - - - - -
29/11:00pm 14.6 SSW 10 12 1017.8 - 0.0 - - - - - - -
29/10:30pm 14.8 SSW 12 14 1017.9 - 0.0 - - - - - - -
29/10:00pm 15.1 SSW 11 13 1018.0 - 0.0 - - - - - - -
29/09:30pm 14.9 SSW 12 15 1017.8 - 0.0 - - - - - - -
29/09:00pm 15.1 SSW 14 16 1017.4 - 0.0 - - - - - - -
29/08:30pm 15.1 SSW 12 16 1017.0 - 0.0 - - - - - - -
29/08:00pm 15.4 SSW 13 16 1016.9 - 0.0 - - - - - - -
29/07:30pm 15.8 SSW 13 15 1016.9 - 0.0 - - - - - - -
29/07:00pm 15.7 SSW 14 16 1017.1 - 0.0 - - - - - - -
29/06:30pm 16.2 SW 14 17 1017.1 - 0.0 - - - - - - -
29/06:00pm 16.4 SW 15 19 1017.0 - 0.0 - - - - - - -
29/05:30pm 16.3 SW 14 16 1016.8 - 0.0 - - - - - - -
29/05:00pm 16.5 SW 15 17 1017.2 - 0.0 - - - - - - -
29/04:30pm 16.6 SW 13 16 1017.0 - 0.0 - - - - - - -
29/04:00pm 17.6 SW 12 15 1017.2 - 0.0 - - - - - - -
29/03:30pm 17.8 SW 9 11 1017.6 - 0.0 - - - - - - -
29/03:00pm 17.8 WSW 9 10 1017.5 - 0.0 - - - - - - -
29/02:30pm 17.5 WSW 9 10 1017.8 - 0.0 - - - - - - -
29/02:00pm 17.9 W 8 10 1017.8 - 0.0 - - - - - - -
29/01:30pm 18.0 W 9 11 1018.1 - 0.0 - - - - - - -
29/01:00pm 18.1 W 8 10 1018.3 - 0.0 - - - - - - -
29/12:30pm 17.4 W 9 11 1018.6 - 0.0 - - - - - - -
29/12:00pm 17.6 W 9 11 1018.7 - 0.0 - - - - - - -
29/11:30am 17.2 WNW 7 10 1018.8 - 0.0 - - - - - - -
29/11:00am 16.5 W 5 7 1019.0 - 0.0 - - - - - - -
29/10:30am 16.7 WNW 6 7 1018.9 - 0.0 - - - - - - -
29/10:00am 16.3 WNW 6 8 1018.9 - 0.0 - - - - - - -
29/09:30am 16.4 NW 7 9 1018.8 - 0.0 - - - - - - -
29/09:00am 15.9 NW 7 9 1018.9 - 0.0 - - - - - - -
29/08:30am 15.4 WNW 6 8 1019.0 - 0.0 - - - - - - -
29/08:00am 15.0 NNW 7 9 1019.1 - 0.0 - - - - - - -
29/07:30am 14.8 WNW 9 13 1019.0 - 0.0 - - - - - - -
29/07:00am 14.9 WNW 7 11 1018.9 - 0.0 - - - - - - -
29/06:30am 14.8 W 6 9 1018.8 - 0.0 - - - - - - -
29/06:00am 14.7 W 9 11 1018.7 - 0.0 - - - - - - -
29/05:30am 14.9 W 7 9 1018.6 - 0.0 - - - - - - -
29/05:00am 14.4 WNW 5 7 1018.6 - 0.0 - - - - - - -
29/04:30am 14.5 W 11 12 1018.5 - 0.0 - - - - - - -
29/04:00am 14.8 WSW 8 11 1018.6 - 0.0 - - - - - - -
29/03:30am 14.8 SW 5 7 1018.6 - 0.0 - - - - - - -
29/03:00am 15.1 WSW 7 8 1018.7 - 0.0 - - - - - - -
29/02:30am 14.9 WSW 7 10 1018.8 - 0.0 - - - - - - -
29/02:00am 15.2 WSW 9 12 1018.9 - 0.0 - - - - - - -
29/01:30am 15.1 WSW 7 9 1019.2 - 0.0 - - - - - - -
29/01:00am 15.2 SW 8 11 1019.6 - 0.0 - - - - - - -
29/12:30am 14.9 W 9 12 1019.8 - 0.0 - - - - - - -
29/12:00am 15.1 WSW 8 14 1019.8 - 0.0 - - - - - - -
 
Date/Time
CDT
Temp

°C
Wind Pressure Rain
since 9am
mm
Weather Cloud Vis
km
Sea
Height
m
Swell
Dir
 
Speed
knots
Gust
knots
hPa Trend Height
m
Period
s
Dir
28/11:30pm 15.1 SW 7 9 1019.9 - 0.0 - - - - - - -
28/11:00pm 14.9 SW 9 13 1019.8 - 0.0 - - - - - - -
28/10:30pm 14.9 SW 9 11 1020.0 - 0.0 - - - - - - -
28/10:00pm 15.0 SW 10 11 1019.8 - 0.0 - - - - - - -
28/09:30pm 14.8 SW 11 13 1019.8 - 0.0 - - - - - - -
28/09:00pm 15.1 SW 11 13 1019.5 - 0.0 - - - - - - -
28/08:30pm 15.2 SW 13 14 1019.3 - 0.0 - - - - - - -
28/08:00pm 15.3 SW 12 14 1019.3 - 0.0 - - - - - - -
28/07:30pm 15.6 SW 12 14 1019.2 - 0.0 - - - - - - -
28/07:00pm 16.0 SW 12 14 1019.2 - 0.0 - - - - - - -
28/06:30pm 16.0 WSW 13 15 1019.2 - 0.0 - - - - - - -
28/06:00pm 16.4 WSW 13 14 1019.2 - 0.0 - - - - - - -
28/05:30pm 16.7 WSW 13 15 1019.2 - 0.0 - - - - - - -
28/05:00pm 16.8 SW 13 16 1019.2 - 0.0 - - - - - - -
28/04:30pm 16.6 SW 15 17 1019.1 - 0.0 - - - - - - -
28/04:00pm 16.4 W 13 15 1019.3 - 0.0 - - - - - - -
28/03:30pm 17.1 WSW 14 16 1019.3 - 0.0 - - - - - - -
28/03:00pm 17.1 SW 14 16 1019.4 - 0.0 - - - - - - -
28/02:30pm 17.6 SW 16 19 1019.6 - 0.0 - - - - - - -
28/02:00pm 17.5 WSW 18 21 1019.7 - 0.0 - - - - - - -
28/01:30pm 17.3 WSW 18 20 1019.4 - 0.0 - - - - - - -
28/01:00pm 17.0 WSW 16 19 1019.4 - 0.0 - - - - - - -
28/12:30pm 17.2 WSW 18 20 1019.5 - 0.0 - - - - - - -
28/12:00pm 16.3 WSW 23 27 1019.4 - 0.0 - - - - - - -
28/11:30am 16.6 WSW 18 20 1019.4 - 0.0 - - - - - - -
28/11:00am 15.9 WSW 23 27 1019.3 - 0.0 - - - - - - -
28/10:30am 16.4 WSW 17 20 1019.4 - 0.0 - - - - - - -
28/10:00am 15.7 WSW 20 24 1019.2 - 0.0 - - - - - - -
28/09:30am 15.9 W 19 24 1019.0 - 0.0 - - - - - - -
28/09:00am 14.7 W 16 19 1018.9 - 0.2 - - - - - - -
28/08:30am 14.2 WSW 22 28 1018.9 - 0.2 - - - - - - -
28/08:00am 14.7 W 21 25 1018.5 - 0.2 - - - - - - -
28/07:30am 15.6 WSW 21 25 1018.2 - 0.2 - - - - - - -
28/07:00am 15.3 W 22 25 1017.9 - 0.2 - - - - - - -
28/06:30am 15.1 WSW 23 28 1017.6 - 0.2 - - - - - - -
28/06:00am 15.0 WSW 22 28 1017.4 - 0.2 - - - - - - -
28/05:30am 14.6 WSW 21 27 1017.2 - 0.2 - - - - - - -
28/05:00am 14.1 WSW 24 30 1017.0 - 0.2 - - - - - - -
28/04:30am 15.3 WSW 20 24 1016.9 - 0.2 - - - - - - -
28/04:00am 14.9 W 23 28 1016.7 - 0.2 - - - - - - -
28/03:30am 14.6 W 25 29 1016.6 - 0.2 - - - - - - -
28/03:00am 15.0 W 23 27 1016.6 - 0.2 - - - - - - -
28/02:30am 15.1 W 23 29 1016.8 - 0.2 - - - - - - -
28/02:00am 14.8 W 22 25 1017.1 - 0.2 - - - - - - -

Other Formats:

Comma delimited format used in spreadsheet applications
http://www.bom.gov.au/fwo/IDS60701/IDS60701.94804.axf

JavaScript Object Notation format (JSON) in row-major order
http://www.bom.gov.au/fwo/IDS60701/IDS60701.94804.json